Time;durP1;ratioP1;P1;durP2;ratioP2;P2;SDS_P1;SDS_P2;PMS_P1;PMS_P2;Temp;Humidity;BMP_temperature;BMP_pressure;BME280_temperature;BME280_humidity;BME280_pressure;Samples;Min_cycle;Max_cycle;Signal;HPM_P1;HPM_P2
2023/07/27 00:01:08;;;;;;;6.23;4.63;;;;;;;;;;5013310;28;20481;-76
2023/07/27 00:03:35;;;;;;;7.60;4.43;;;;;;;;;;5013633;28;20455;-76
2023/07/27 00:06:03;;;;;;;5.70;4.97;;;;;;;;;;5013623;28;20877;-76
2023/07/27 00:08:30;;;;;;;5.07;4.57;;;;;;;;;;5013556;28;20462;-76
2023/07/27 00:10:59;;;;;;;5.60;4.73;;;;;;;;;;5013512;28;20482;-76
2023/07/27 00:13:26;;;;;;;8.90;6.53;;;;;;;;;;5013618;28;20788;-76
2023/07/27 00:15:53;;;;;;;6.03;4.60;;;;;;;;;;5013535;28;20458;-76
2023/07/27 00:18:20;;;;;;;4.87;4.37;;;;;;;;;;5013588;28;20455;-76
2023/07/27 00:20:47;;;;;;;7.53;5.23;;;;;;;;;;5013396;28;21058;-76
2023/07/27 00:23:14;;;;;;;6.27;4.90;;;;;;;;;;5013502;28;20454;-76
2023/07/27 00:25:42;;;;;;;5.60;4.60;;;;;;;;;;5013185;28;20459;-76
2023/07/27 00:28:10;;;;;;;5.70;5.10;;;;;;;;;;5013431;28;20818;-76
2023/07/27 00:30:37;;;;;;;6.63;4.60;;;;;;;;;;5013315;28;20447;-76
2023/07/27 00:33:04;;;;;;;10.70;5.30;;;;;;;;;;5013374;28;20889;-76
2023/07/27 00:35:31;;;;;;;5.20;3.93;;;;;;;;;;5013583;28;20458;-76
2023/07/27 00:37:59;;;;;;;6.10;4.97;;;;;;;;;;5013381;28;20455;-76
2023/07/27 00:40:26;;;;;;;7.70;5.00;;;;;;;;;;5013006;28;20593;-75
2023/07/27 00:42:53;;;;;;;12.40;5.33;;;;;;;;;;5013341;28;20457;-76
2023/07/27 00:45:22;;;;;;;6.80;5.47;;;;;;;;;;5012942;28;20470;-76
2023/07/27 00:47:49;;;;;;;6.47;5.37;;;;;;;;;;5013217;28;20461;-76
2023/07/27 00:50:16;;;;;;;6.87;5.60;;;;;;;;;;5012951;28;20461;-76
2023/07/27 00:52:43;;;;;;;9.73;6.27;;;;;;;;;;5013077;28;20486;-76
2023/07/27 00:55:11;;;;;;;11.50;5.33;;;;;;;;;;5013148;28;20788;-76
2023/07/27 00:57:38;;;;;;;5.40;4.57;;;;;;;;;;5012778;28;20454;-75
2023/07/27 01:00:05;;;;;;;6.60;5.10;;;;;;;;;;5013271;28;20487;-76
2023/07/27 01:02:34;;;;;;;11.80;5.27;;;;;;;;;;5013094;28;20566;-76
2023/07/27 01:05:01;;;;;;;5.90;5.20;;;;;;;;;;5013110;28;20932;-76
2023/07/27 01:07:28;;;;;;;7.07;5.03;;;;;;;;;;5013374;28;20458;-76
2023/07/27 01:09:55;;;;;;;6.40;5.63;;;;;;;;;;5016626;28;20473;-76
2023/07/27 01:12:29;;;;;;;6.70;5.10;;;;;;;;;;5016121;28;20478;-76
2023/07/27 01:15:00;;;;;;;7.23;5.70;;;;;;;;;;5016553;28;20439;-76
2023/07/27 01:17:31;;;;;;;8.30;5.37;;;;;;;;;;5016246;28;20438;-76
2023/07/27 01:20:05;;;;;;;6.40;5.23;;;;;;;;;;5016152;28;20485;-76
2023/07/27 01:22:56;;;;;;;6.20;5.50;;;;;;;;;;5016289;28;20566;-76
2023/07/27 01:25:34;;;;;;;9.57;6.30;;;;;;;;;;5016302;28;20449;-76
2023/07/27 01:28:08;;;;;;;10.13;6.33;;;;;;;;;;5016382;28;20442;-76
2023/07/27 01:30:53;;;;;;;7.80;5.90;;;;;;;;;;5016148;28;20438;-76
2023/07/27 01:33:24;;;;;;;15.33;6.17;;;;;;;;;;5015866;28;20529;-76
2023/07/27 01:35:55;;;;;;;9.13;5.93;;;;;;;;;;5015997;28;20431;-76
2023/07/27 01:38:22;;;;;;;9.37;5.70;;;;;;;;;;5015744;28;20442;-76
2023/07/27 01:40:50;;;;;;;6.83;5.80;;;;;;;;;;5015777;28;20498;-76
2023/07/27 01:43:18;;;;;;;13.93;6.60;;;;;;;;;;5015885;28;20455;-76
2023/07/27 01:45:46;;;;;;;9.00;6.40;;;;;;;;;;5015555;28;20465;-76
2023/07/27 01:48:13;;;;;;;7.33;6.60;;;;;;;;;;5015791;28;20814;-76
2023/07/27 01:50:42;;;;;;;8.10;6.17;;;;;;;;;;5015580;28;20458;-76
2023/07/27 01:53:11;;;;;;;8.30;6.63;;;;;;;;;;5015661;28;20822;-76
2023/07/27 01:55:38;;;;;;;7.57;6.70;;;;;;;;;;5015283;28;20466;-76
2023/07/27 01:58:05;;;;;;;13.47;6.70;;;;;;;;;;5015583;28;20466;-76
2023/07/27 02:00:33;;;;;;;12.73;6.57;;;;;;;;;;5015461;28;20983;-76
2023/07/27 02:03:00;;;;;;;8.40;6.13;;;;;;;;;;5015227;28;20462;-76
2023/07/27 02:05:27;;;;;;;11.50;6.30;;;;;;;;;;5015504;28;20455;-76
2023/07/27 02:07:56;;;;;;;9.97;5.93;;;;;;;;;;5015442;28;20473;-76
2023/07/27 02:10:23;;;;;;;10.70;5.40;;;;;;;;;;5015279;28;20447;-76
2023/07/27 02:12:52;;;;;;;9.23;6.00;;;;;;;;;;5015387;28;20471;-76
2023/07/27 02:15:23;;;;;;;6.93;5.37;;;;;;;;;;5015222;28;20932;-76
2023/07/27 02:17:53;;;;;;;6.87;6.00;;;;;;;;;;5015428;28;20505;-76
2023/07/27 02:20:21;;;;;;;8.80;6.33;;;;;;;;;;5013784;28;20477;-76
2023/07/27 02:22:49;;;;;;;9.73;6.77;;;;;;;;;;5015121;28;20524;-76
2023/07/27 02:25:18;;;;;;;9.67;5.80;;;;;;;;;;5015129;28;20834;-76
2023/07/27 02:27:45;;;;;;;6.93;4.93;;;;;;;;;;5015247;28;20944;-76
2023/07/27 02:30:12;;;;;;;11.33;6.10;;;;;;;;;;5015128;28;20459;-76
2023/07/27 02:32:39;;;;;;;7.57;6.00;;;;;;;;;;5014820;28;20477;-76
2023/07/27 02:35:07;;;;;;;9.00;5.93;;;;;;;;;;5015114;28;20451;-76
2023/07/27 02:37:34;;;;;;;10.07;6.03;;;;;;;;;;5014864;28;20966;-75
2023/07/27 02:40:01;;;;;;;10.30;6.70;;;;;;;;;;5014698;28;20486;-76
2023/07/27 02:42:29;;;;;;;8.57;6.63;;;;;;;;;;5014550;28;20475;-76
2023/07/27 02:44:56;;;;;;;9.57;6.40;;;;;;;;;;5014816;28;20454;-76
2023/07/27 02:47:24;;;;;;;9.47;6.70;;;;;;;;;;5014802;28;20476;-76
2023/07/27 02:49:51;;;;;;;11.10;6.57;;;;;;;;;;5014402;28;20442;-76
2023/07/27 02:52:18;;;;;;;8.07;6.20;;;;;;;;;;5014587;28;20650;-76
2023/07/27 02:54:45;;;;;;;9.60;5.97;;;;;;;;;;5014690;28;20461;-76
2023/07/27 02:57:12;;;;;;;9.80;6.47;;;;;;;;;;5014729;28;20457;-76
2023/07/27 02:59:41;;;;;;;7.97;5.90;;;;;;;;;;5014490;28;20462;-76
2023/07/27 03:02:08;;;;;;;7.73;6.17;;;;;;;;;;5014192;28;20482;-76
2023/07/27 03:04:36;;;;;;;8.63;6.33;;;;;;;;;;5014484;28;20458;-76
2023/07/27 03:07:03;;;;;;;7.30;6.07;;;;;;;;;;5014141;28;20450;-76
2023/07/27 03:09:31;;;;;;;7.30;6.13;;;;;;;;;;5014656;28;20451;-76
2023/07/27 03:11:58;;;;;;;8.53;6.87;;;;;;;;;;5014402;28;20838;-76
2023/07/27 03:14:25;;;;;;;6.97;6.27;;;;;;;;;;5014542;28;20435;-76
2023/07/27 03:16:53;;;;;;;9.23;6.13;;;;;;;;;;5014006;28;20458;-76
2023/07/27 03:19:20;;;;;;;10.13;6.37;;;;;;;;;;5014130;28;20459;-76
2023/07/27 03:21:48;;;;;;;11.47;7.43;;;;;;;;;;5013670;28;20494;-76
2023/07/27 03:24:16;;;;;;;10.97;6.93;;;;;;;;;;5013840;28;20462;-76
2023/07/27 03:26:43;;;;;;;8.43;6.13;;;;;;;;;;5014338;28;20462;-76
2023/07/27 03:29:10;;;;;;;8.07;5.80;;;;;;;;;;5013938;28;20936;-76
2023/07/27 03:31:38;;;;;;;9.07;4.90;;;;;;;;;;5013374;28;20473;-76
2023/07/27 03:34:07;;;;;;;6.47;4.90;;;;;;;;;;5014006;28;20876;-77
2023/07/27 03:36:34;;;;;;;8.23;5.30;;;;;;;;;;5013009;28;20501;-76
2023/07/27 03:39:01;;;;;;;7.87;5.90;;;;;;;;;;5013322;28;20845;-76
2023/07/27 03:41:28;;;;;;;7.27;5.67;;;;;;;;;;5012658;28;20878;-76
2023/07/27 03:43:55;;;;;;;6.27;5.40;;;;;;;;;;5012831;28;20459;-76
2023/07/27 03:46:23;;;;;;;8.70;5.50;;;;;;;;;;5012632;28;20449;-76
2023/07/27 03:48:52;;;;;;;5.77;4.73;;;;;;;;;;5012992;28;20871;-76
2023/07/27 03:51:21;;;;;;;6.83;5.23;;;;;;;;;;5013130;28;20474;-76
2023/07/27 03:53:48;;;;;;;6.17;5.43;;;;;;;;;;5012974;28;20908;-76
2023/07/27 03:56:15;;;;;;;7.33;5.47;;;;;;;;;;5012791;28;20507;-76
2023/07/27 03:58:42;;;;;;;7.40;5.47;;;;;;;;;;5012415;28;20462;-76
2023/07/27 04:01:09;;;;;;;6.20;4.87;;;;;;;;;;5012657;28;20494;-76
2023/07/27 04:03:36;;;;;;;6.83;6.00;;;;;;;;;;5012724;28;20473;-76
2023/07/27 04:06:03;;;;;;;11.40;7.20;;;;;;;;;;5013066;28;20463;-76
2023/07/27 04:08:32;;;;;;;9.37;7.00;;;;;;;;;;5012637;28;20451;-76
2023/07/27 04:10:59;;;;;;;9.90;6.47;;;;;;;;;;5012084;28;20479;-76
2023/07/27 04:13:26;;;;;;;6.77;5.27;;;;;;;;;;5012300;28;20465;-77
2023/07/27 04:15:53;;;;;;;8.57;6.70;;;;;;;;;;5011931;28;20455;-76
2023/07/27 04:18:20;;;;;;;7.77;6.00;;;;;;;;;;5012163;28;20457;-76
2023/07/27 04:20:47;;;;;;;10.50;5.60;;;;;;;;;;5011781;28;20490;-76
2023/07/27 04:23:15;;;;;;;5.90;4.93;;;;;;;;;;5013480;28;20450;-78
2023/07/27 04:25:43;;;;;;;5.27;4.53;;;;;;;;;;5013567;28;20491;-78
2023/07/27 04:28:10;;;;;;;6.80;5.23;;;;;;;;;;5013527;28;20562;-78
2023/07/27 04:30:37;;;;;;;6.07;5.13;;;;;;;;;;5013297;28;20463;-78
2023/07/27 04:33:04;;;;;;;4.67;3.53;;;;;;;;;;5014017;28;20450;-78
2023/07/27 04:35:32;;;;;;;12.47;3.70;;;;;;;;;;5013685;28;20458;-78
2023/07/27 04:37:59;;;;;;;5.90;4.80;;;;;;;;;;5013653;28;20916;-79
2023/07/27 04:40:26;;;;;;;7.97;3.33;;;;;;;;;;5013623;28;20498;-78
2023/07/27 04:42:54;;;;;;;3.53;3.23;;;;;;;;;;5015658;28;20950;-78
2023/07/27 04:45:21;;;;;;;3.07;2.60;;;;;;;;;;5017821;28;20442;-79
2023/07/27 04:47:48;;;;;;;6.53;2.97;;;;;;;;;;5017685;28;20449;-79
2023/07/27 04:50:16;;;;;;;4.93;2.57;;;;;;;;;;5018217;28;20447;-79
2023/07/27 04:52:43;;;;;;;2.90;2.43;;;;;;;;;;5019391;28;20501;-79
2023/07/27 04:55:10;;;;;;;3.20;2.60;;;;;;;;;;5018614;28;20454;-78
2023/07/27 04:57:37;;;;;;;3.40;2.97;;;;;;;;;;5018782;28;20829;-78
2023/07/27 05:00:07;;;;;;;3.67;3.20;;;;;;;;;;5018879;28;20470;-78
2023/07/27 05:02:34;;;;;;;3.97;2.43;;;;;;;;;;5017375;28;20494;-78
2023/07/27 05:05:01;;;;;;;2.63;2.43;;;;;;;;;;5016359;28;20442;-78
2023/07/27 05:07:28;;;;;;;3.50;2.90;;;;;;;;;;5017161;28;20462;-78
2023/07/27 05:09:55;;;;;;;3.17;2.30;;;;;;;;;;5017007;28;20450;-78
2023/07/27 05:12:22;;;;;;;3.50;2.40;;;;;;;;;;5017268;28;20482;-78
2023/07/27 05:14:50;;;;;;;3.00;2.40;;;;;;;;;;5017306;28;20482;-78
2023/07/27 05:17:19;;;;;;;3.27;2.23;;;;;;;;;;5017165;28;20464;-77
2023/07/27 05:19:46;;;;;;;6.83;2.00;;;;;;;;;;5016947;28;20825;-77
2023/07/27 05:22:13;;;;;;;4.97;2.20;;;;;;;;;;5016477;28;20489;-78
2023/07/27 05:24:40;;;;;;;4.00;2.50;;;;;;;;;;5016622;28;20499;-78
2023/07/27 05:27:07;;;;;;;4.70;2.90;;;;;;;;;;5016080;28;20446;-78
2023/07/27 05:29:34;;;;;;;2.90;2.60;;;;;;;;;;5016285;28;20936;-77
2023/07/27 05:32:02;;;;;;;3.10;2.70;;;;;;;;;;5016796;28;20481;-77
2023/07/27 05:34:30;;;;;;;4.73;2.77;;;;;;;;;;5016034;28;20454;-78
2023/07/27 05:36:57;;;;;;;4.27;2.43;;;;;;;;;;5015698;28;20478;-77
2023/07/27 05:39:24;;;;;;;4.30;2.47;;;;;;;;;;5015763;28;20980;-78
2023/07/27 05:41:51;;;;;;;4.70;4.00;;;;;;;;;;5015556;28;20502;-78
2023/07/27 05:44:19;;;;;;;3.27;2.03;;;;;;;;;;5016051;28;20820;-78
2023/07/27 05:46:46;;;;;;;2.73;2.53;;;;;;;;;;5015637;28;20450;-77
2023/07/27 05:49:13;;;;;;;4.50;2.80;;;;;;;;;;5015896;28;21049;-77
2023/07/27 05:51:41;;;;;;;2.80;2.20;;;;;;;;;;5015422;28;20479;-77
2023/07/27 05:54:08;;;;;;;4.70;2.90;;;;;;;;;;5015431;28;20942;-78
2023/07/27 05:56:36;;;;;;;5.17;3.20;;;;;;;;;;5015698;28;20462;-77
2023/07/27 05:59:03;;;;;;;2.83;2.23;;;;;;;;;;5013551;28;20493;-77
2023/07/27 06:01:30;;;;;;;2.70;1.80;;;;;;;;;;5014352;28;20870;-78
2023/07/27 06:04:00;;;;;;;2.47;2.23;;;;;;;;;;5014412;28;20467;-78
2023/07/27 06:06:27;;;;;;;2.07;1.83;;;;;;;;;;5014409;28;20876;-78
2023/07/27 06:08:56;;;;;;;2.37;2.03;;;;;;;;;;5014179;28;20485;-78
2023/07/27 06:11:23;;;;;;;2.90;2.07;;;;;;;;;;5014255;28;20960;-78
2023/07/27 06:13:50;;;;;;;4.27;2.90;;;;;;;;;;5014985;28;20823;-78
2023/07/27 06:16:17;;;;;;;6.00;2.83;;;;;;;;;;5013705;28;20528;-77
2023/07/27 06:18:44;;;;;;;2.43;2.23;;;;;;;;;;5015596;28;20945;-80
2023/07/27 06:21:11;;;;;;;4.20;2.47;;;;;;;;;;5015974;28;20498;-80
2023/07/27 06:23:39;;;;;;;3.73;2.30;;;;;;;;;;5016432;28;20443;-81
2023/07/27 06:26:07;;;;;;;2.50;2.30;;;;;;;;;;5015828;28;20454;-80
2023/07/27 06:28:35;;;;;;;3.10;1.90;;;;;;;;;;5016064;28;20961;-80
2023/07/27 06:31:02;;;;;;;2.67;2.47;;;;;;;;;;5016204;28;20486;-80
2023/07/27 06:33:30;;;;;;;3.20;2.40;;;;;;;;;;5016484;28;21016;-80
2023/07/27 06:35:58;;;;;;;3.73;2.23;;;;;;;;;;5016266;28;20457;-80
2023/07/27 06:38:25;;;;;;;3.40;2.13;;;;;;;;;;5016604;28;20458;-80
2023/07/27 06:40:52;;;;;;;3.03;2.73;;;;;;;;;;5015987;28;20498;-80
2023/07/27 06:43:20;;;;;;;2.63;2.43;;;;;;;;;;5017342;28;20513;-80
2023/07/27 06:45:48;;;;;;;2.13;1.93;;;;;;;;;;5016752;28;20465;-80
2023/07/27 06:48:15;;;;;;;4.67;2.13;;;;;;;;;;5016131;28;20461;-80
2023/07/27 06:50:42;;;;;;;2.80;2.07;;;;;;;;;;5015873;28;20894;-80
2023/07/27 06:53:09;;;;;;;6.20;2.90;;;;;;;;;;5016958;28;20453;-80
2023/07/27 06:55:36;;;;;;;5.83;2.33;;;;;;;;;;5016477;28;20462;-80
2023/07/27 06:58:03;;;;;;;4.77;2.40;;;;;;;;;;5015729;28;20481;-80
2023/07/27 07:00:32;;;;;;;3.20;2.60;;;;;;;;;;5016291;28;20555;-80
2023/07/27 07:02:59;;;;;;;3.40;2.23;;;;;;;;;;5015182;28;20540;-77
2023/07/27 07:05:27;;;;;;;3.13;2.77;;;;;;;;;;5013304;28;20914;-77
2023/07/27 07:07:54;;;;;;;3.73;2.80;;;;;;;;;;5013706;28;20446;-77
2023/07/27 07:10:21;;;;;;;3.23;2.60;;;;;;;;;;5014077;28;20450;-77
2023/07/27 07:12:48;;;;;;;9.30;2.77;;;;;;;;;;5013614;28;20814;-77
2023/07/27 07:15:15;;;;;;;2.80;2.47;;;;;;;;;;5013554;28;20450;-77
2023/07/27 07:17:44;;;;;;;3.10;2.80;;;;;;;;;;5013794;28;20486;-77
2023/07/27 07:20:11;;;;;;;3.67;2.60;;;;;;;;;;5013576;28;20443;-77
2023/07/27 07:22:38;;;;;;;4.63;2.40;;;;;;;;;;5014056;28;20498;-77
2023/07/27 07:25:06;;;;;;;4.77;2.97;;;;;;;;;;5013810;28;20454;-77
2023/07/27 07:27:33;;;;;;;3.90;3.37;;;;;;;;;;5014043;28;20454;-77
2023/07/27 07:30:03;;;;;;;4.37;2.10;;;;;;;;;;5013202;28;20458;-77
2023/07/27 07:32:31;;;;;;;4.70;2.63;;;;;;;;;;5013384;28;20480;-77
2023/07/27 07:34:59;;;;;;;2.37;2.17;;;;;;;;;;5013521;28;20515;-77
2023/07/27 07:37:26;;;;;;;3.27;2.80;;;;;;;;;;5012877;28;20798;-77
2023/07/27 07:39:53;;;;;;;2.60;2.30;;;;;;;;;;5012491;28;20565;-77
2023/07/27 07:42:20;;;;;;;2.77;2.20;;;;;;;;;;5013551;28;20863;-76
2023/07/27 07:44:48;;;;;;;3.33;2.37;;;;;;;;;;5013371;28;20451;-79
2023/07/27 07:47:15;;;;;;;2.33;2.13;;;;;;;;;;5012858;28;20454;-76
2023/07/27 07:49:42;;;;;;;4.93;2.43;;;;;;;;;;5013448;28;20458;-76
2023/07/27 07:52:10;;;;;;;2.73;2.10;;;;;;;;;;5013742;28;20832;-78
2023/07/27 07:54:37;;;;;;;4.67;2.87;;;;;;;;;;5014301;28;20464;-77
2023/07/27 07:57:05;;;;;;;5.20;2.63;;;;;;;;;;5013358;28;20462;-78
2023/07/27 07:59:32;;;;;;;3.30;2.73;;;;;;;;;;5012881;28;20458;-76
2023/07/27 08:01:59;;;;;;;3.47;2.97;;;;;;;;;;5012553;28;20516;-78
2023/07/27 08:04:27;;;;;;;2.43;2.23;;;;;;;;;;5012983;28;20534;-77
2023/07/27 08:06:54;;;;;;;3.30;2.73;;;;;;;;;;5013066;28;20466;-76
2023/07/27 08:09:23;;;;;;;4.00;2.30;;;;;;;;;;5012891;28;20823;-76
2023/07/27 08:11:52;;;;;;;2.77;2.20;;;;;;;;;;5012586;28;20477;-76
2023/07/27 08:14:19;;;;;;;2.57;2.13;;;;;;;;;;5012699;28;20459;-76
2023/07/27 08:16:46;;;;;;;3.80;2.33;;;;;;;;;;5014241;28;20450;-77
2023/07/27 08:19:13;;;;;;;5.40;2.17;;;;;;;;;;5016923;28;20512;-77
2023/07/27 08:21:40;;;;;;;2.87;2.43;;;;;;;;;;5016389;28;20505;-76
2023/07/27 08:24:07;;;;;;;2.30;2.10;;;;;;;;;;5016734;28;20485;-77
2023/07/27 08:26:36;;;;;;;4.30;2.03;;;;;;;;;;5016673;28;20457;-79
2023/07/27 08:29:03;;;;;;;23.30;3.90;;;;;;;;;;5018213;28;20450;-78
2023/07/27 08:31:30;;;;;;;4.57;2.63;;;;;;;;;;5017641;28;20830;-78
2023/07/27 08:33:57;;;;;;;3.00;2.30;;;;;;;;;;5017004;28;20960;-76
2023/07/27 08:36:25;;;;;;;3.60;2.30;;;;;;;;;;5016418;28;20450;-76
2023/07/27 08:38:52;;;;;;;2.57;2.00;;;;;;;;;;5016315;28;20461;-78
2023/07/27 08:41:19;;;;;;;2.60;1.80;;;;;;;;;;5016937;28;20490;-76
2023/07/27 08:43:48;;;;;;;2.60;2.27;;;;;;;;;;5017668;28;20829;-79
2023/07/27 08:46:15;;;;;;;3.17;2.30;;;;;;;;;;5018043;28;20950;-78
2023/07/27 08:48:42;;;;;;;2.43;2.00;;;;;;;;;;5017528;28;20454;-78
2023/07/27 08:51:11;;;;;;;2.43;1.70;;;;;;;;;;5016796;28;20475;-77
2023/07/27 08:53:38;;;;;;;2.60;2.00;;;;;;;;;;5016826;28;20466;-77
2023/07/27 08:56:06;;;;;;;4.40;2.10;;;;;;;;;;5016598;28;20455;-78
2023/07/27 08:58:33;;;;;;;2.20;2.00;;;;;;;;;;5016359;28;20962;-77
2023/07/27 09:01:02;;;;;;;3.67;2.20;;;;;;;;;;5016310;28;21002;-77
2023/07/27 09:03:29;;;;;;;2.63;2.00;;;;;;;;;;5016266;28;20471;-77
2023/07/27 09:05:58;;;;;;;2.73;2.00;;;;;;;;;;5016249;28;20939;-78
2023/07/27 09:08:28;;;;;;;2.60;2.30;;;;;;;;;;5016455;28;20493;-78
2023/07/27 09:10:55;;;;;;;6.03;2.40;;;;;;;;;;5015839;28;20475;-78
2023/07/27 09:13:22;;;;;;;2.27;2.00;;;;;;;;;;5015851;28;20494;-78
2023/07/27 09:15:50;;;;;;;2.93;2.20;;;;;;;;;;5015741;28;20872;-77
2023/07/27 09:18:18;;;;;;;3.17;2.87;;;;;;;;;;5016080;28;20462;-78
2023/07/27 09:20:46;;;;;;;4.90;2.40;;;;;;;;;;5015305;28;20478;-78
2023/07/27 09:23:20;;;;;;;9.37;2.53;;;;;;;;;;5016220;28;20498;-78
2023/07/27 09:25:53;;;;;;;3.07;2.27;;;;;;;;;;5015553;28;20439;-78
2023/07/27 09:28:24;;;;;;;2.70;2.10;;;;;;;;;;5015164;28;20438;-78
2023/07/27 09:30:51;;;;;;;3.40;2.40;;;;;;;;;;5016069;28;20482;-78
2023/07/27 09:33:24;;;;;;;3.70;2.00;;;;;;;;;;5015876;28;20926;-77
2023/07/27 09:35:51;;;;;;;2.40;1.93;;;;;;;;;;5015500;28;20443;-77
2023/07/27 09:38:24;;;;;;;2.70;1.87;;;;;;;;;;5015292;28;20463;-78
2023/07/27 09:40:51;;;;;;;2.37;2.10;;;;;;;;;;5001811;28;20533;-77
2023/07/27 09:43:18;;;;;;;2.87;2.17;;;;;;;;;;5013546;28;20852;-77
2023/07/27 09:45:45;;;;;;;2.63;1.80;;;;;;;;;;5013344;28;20451;-77
2023/07/27 09:48:12;;;;;;;2.20;1.77;;;;;;;;;;5013236;28;20454;-77
2023/07/27 09:50:42;;;;;;;2.17;1.60;;;;;;;;;;5013859;28;20485;-77
2023/07/27 09:53:11;;;;;;;3.23;2.20;;;;;;;;;;5011760;28;20458;-76
2023/07/27 09:55:39;;;;;;;2.43;2.20;;;;;;;;;;5012156;28;20465;-76
2023/07/27 09:58:06;;;;;;;3.80;2.27;;;;;;;;;;5011549;28;21042;-75
2023/07/27 10:00:34;;;;;;;2.60;2.40;;;;;;;;;;5011612;28;20454;-77
2023/07/27 10:03:02;;;;;;;4.83;2.23;;;;;;;;;;5011508;28;20968;-75
2023/07/27 10:05:29;;;;;;;5.00;2.33;;;;;;;;;;5011795;28;20804;-76
2023/07/27 10:07:58;;;;;;;3.67;2.43;;;;;;;;;;5012865;28;20465;-76
2023/07/27 10:10:26;;;;;;;3.33;2.30;;;;;;;;;;5012776;28;20465;-77
2023/07/27 10:12:56;;;;;;;2.50;2.03;;;;;;;;;;5015152;28;20524;-81
2023/07/27 10:15:27;;;;;;;3.20;2.30;;;;;;;;;;5017226;28;20755;-80
2023/07/27 10:17:57;;;;;;;3.30;2.23;;;;;;;;;;5016250;28;20462;-81
2023/07/27 10:20:26;;;;;;;2.20;1.97;;;;;;;;;;5016849;28;20841;-80
2023/07/27 10:22:53;;;;;;;2.43;2.07;;;;;;;;;;5016344;28;20510;-80
2023/07/27 10:25:22;;;;;;;2.80;2.23;;;;;;;;;;5016899;28;20458;-80
2023/07/27 10:27:56;;;;;;;2.70;1.90;;;;;;;;;;5016412;28;20783;-81
2023/07/27 10:30:23;;;;;;;3.80;2.20;;;;;;;;;;5016618;28;20443;-81
2023/07/27 10:33:06;;;;;;;2.30;1.90;;;;;;;;;;5016430;28;20525;-81
2023/07/27 10:35:53;;;;;;;3.23;1.97;;;;;;;;;;5017264;28;20485;-81
2023/07/27 10:38:21;;;;;;;2.63;2.20;;;;;;;;;;5015775;28;20451;-80
2023/07/27 10:40:50;;;;;;;3.00;1.80;;;;;;;;;;5015276;28;20483;-81
2023/07/27 10:43:17;;;;;;;2.67;2.30;;;;;;;;;;5015843;28;20491;-82
2023/07/27 10:45:53;;;;;;;3.07;2.73;;;;;;;;;;5014861;28;20533;-82
2023/07/27 10:48:20;;;;;;;3.87;2.00;;;;;;;;;;5014611;28;20458;-82
2023/07/27 10:50:47;;;;;;;2.07;1.87;;;;;;;;;;5014854;28;20467;-82
2023/07/27 10:53:15;;;;;;;2.40;2.20;;;;;;;;;;5015749;28;20993;-80
2023/07/27 10:55:43;;;;;;;3.60;2.53;;;;;;;;;;5014217;28;20457;-82
2023/07/27 10:58:12;;;;;;;2.70;2.13;;;;;;;;;;5015333;28;20462;-82
2023/07/27 11:00:48;;;;;;;2.13;1.93;;;;;;;;;;5130919;27;20572;-79
2023/07/27 11:03:15;;;;;;;2.63;1.97;;;;;;;;;;5131760;28;20429;-81
2023/07/27 11:05:42;;;;;;;2.20;1.80;;;;;;;;;;5132405;28;20455;-81
2023/07/27 11:08:09;;;;;;;3.90;2.50;;;;;;;;;;5132784;28;20455;-80
2023/07/27 11:10:36;;;;;;;2.57;2.10;;;;;;;;;;5131008;28;20449;-78
2023/07/27 11:13:03;;;;;;;5.00;3.30;;;;;;;;;;5130065;28;20799;-78
2023/07/27 11:15:31;;;;;;;2.80;2.13;;;;;;;;;;5130247;28;20816;-78
2023/07/27 11:18:00;;;;;;;3.00;2.27;;;;;;;;;;5130179;28;20440;-78
2023/07/27 11:20:28;;;;;;;2.30;1.90;;;;;;;;;;5130331;28;21053;-78
2023/07/27 11:22:56;;;;;;;3.37;2.23;;;;;;;;;;5130533;28;20473;-78
2023/07/27 11:25:23;;;;;;;2.70;2.10;;;;;;;;;;5130907;28;20477;-78
2023/07/27 11:27:51;;;;;;;3.30;1.90;;;;;;;;;;5129751;28;20464;-77
2023/07/27 11:30:21;;;;;;;2.27;2.07;;;;;;;;;;5130090;28;20760;-78
2023/07/27 11:32:56;;;;;;;7.70;3.53;;;;;;;;;;5129095;28;20477;-77
2023/07/27 11:35:25;;;;;;;3.40;2.20;;;;;;;;;;5130027;28;20827;-78
2023/07/27 11:37:52;;;;;;;2.60;2.30;;;;;;;;;;5130729;28;20453;-78
2023/07/27 11:40:20;;;;;;;2.80;2.40;;;;;;;;;;5130266;28;21091;-76
2023/07/27 11:42:47;;;;;;;2.70;2.00;;;;;;;;;;5129722;28;20484;-76
2023/07/27 11:45:14;;;;;;;2.27;2.07;;;;;;;;;;5130480;28;20937;-80
2023/07/27 11:47:41;;;;;;;3.10;2.10;;;;;;;;;;5131476;28;20833;-79
2023/07/27 11:50:10;;;;;;;2.80;2.30;;;;;;;;;;5134222;28;20444;-81
2023/07/27 11:52:40;;;;;;;3.23;2.57;;;;;;;;;;5132863;28;20985;-80
2023/07/27 11:55:07;;;;;;;3.20;2.40;;;;;;;;;;5134237;28;20559;-76
2023/07/27 11:57:35;;;;;;;2.60;2.30;;;;;;;;;;5129976;28;20452;-78
2023/07/27 12:00:03;;;;;;;2.40;2.07;;;;;;;;;;5131856;28;21080;-78
2023/07/27 12:02:33;;;;;;;3.67;2.40;;;;;;;;;;5133917;28;20552;-78
2023/07/27 12:05:00;;;;;;;3.03;2.10;;;;;;;;;;5132419;28;20981;-78
2023/07/27 12:07:28;;;;;;;2.57;2.30;;;;;;;;;;5131464;28;20457;-77
2023/07/27 12:09:57;;;;;;;2.50;2.07;;;;;;;;;;5129716;28;20465;-75
2023/07/27 12:12:24;;;;;;;2.47;2.23;;;;;;;;;;5115151;28;20470;-76
2023/07/27 12:14:54;;;;;;;3.70;2.60;;;;;;;;;;5119468;28;20544;-78
2023/07/27 12:17:24;;;;;;;3.27;2.90;;;;;;;;;;5119093;28;20459;-78
2023/07/27 12:19:51;;;;;;;3.47;2.47;;;;;;;;;;5120255;28;20549;-78
2023/07/27 12:22:19;;;;;;;2.50;2.30;;;;;;;;;;5126105;28;20480;-78
2023/07/27 12:24:46;;;;;;;3.33;2.10;;;;;;;;;;5124939;28;20445;-79
2023/07/27 12:27:15;;;;;;;3.27;2.10;;;;;;;;;;5124342;28;20442;-79
2023/07/27 12:29:42;;;;;;;4.17;2.30;;;;;;;;;;5127135;28;20446;-79
2023/07/27 12:32:09;;;;;;;2.50;2.30;;;;;;;;;;5124325;28;20480;-77
2023/07/27 12:34:37;;;;;;;3.13;2.27;;;;;;;;;;5119586;28;20482;-77
2023/07/27 12:37:07;;;;;;;5.37;2.50;;;;;;;;;;5121494;28;20464;-79
2023/07/27 12:39:36;;;;;;;3.53;2.47;;;;;;;;;;5124620;28;21008;-80
2023/07/27 12:42:03;;;;;;;2.50;2.30;;;;;;;;;;5121274;28;20980;-79
2023/07/27 12:44:32;;;;;;;3.57;3.17;;;;;;;;;;5125804;28;20442;-78
2023/07/27 12:46:59;;;;;;;2.67;2.47;;;;;;;;;;5124257;28;20454;-78
2023/07/27 12:49:26;;;;;;;2.67;2.47;;;;;;;;;;5124193;28;20468;-79
2023/07/27 12:51:53;;;;;;;3.93;2.40;;;;;;;;;;5125263;28;20480;-79
2023/07/27 12:54:20;;;;;;;3.60;2.73;;;;;;;;;;5123751;28;20449;-78
2023/07/27 12:56:47;;;;;;;3.10;2.47;;;;;;;;;;5123160;28;20458;-79
2023/07/27 12:59:14;;;;;;;3.43;2.77;;;;;;;;;;5122470;28;20485;-77
2023/07/27 13:01:43;;;;;;;3.50;2.50;;;;;;;;;;5118721;28;20462;-79
2023/07/27 13:04:10;;;;;;;3.53;3.10;;;;;;;;;;5120596;28;20468;-78
2023/07/27 13:06:37;;;;;;;5.23;2.90;;;;;;;;;;5122692;28;20453;-78
2023/07/27 13:09:04;;;;;;;2.73;2.50;;;;;;;;;;5122789;28;20789;-79
2023/07/27 13:11:31;;;;;;;3.30;3.00;;;;;;;;;;5122722;28;20469;-78
2023/07/27 13:13:59;;;;;;;3.20;2.77;;;;;;;;;;5123053;28;20451;-78
2023/07/27 13:16:26;;;;;;;3.63;2.30;;;;;;;;;;5117113;28;20906;-78
2023/07/27 13:18:54;;;;;;;3.07;2.70;;;;;;;;;;5114719;28;20446;-78
2023/07/27 13:21:21;;;;;;;4.30;2.90;;;;;;;;;;5114643;28;20623;-78
2023/07/27 13:23:48;;;;;;;5.23;2.97;;;;;;;;;;5114106;28;20878;-78
2023/07/27 13:26:16;;;;;;;2.43;2.20;;;;;;;;;;5114992;28;20465;-79
2023/07/27 13:28:43;;;;;;;2.50;2.03;;;;;;;;;;5115747;28;20898;-77
2023/07/27 13:31:12;;;;;;;3.20;2.00;;;;;;;;;;5115335;28;20470;-78
2023/07/27 13:33:39;;;;;;;3.07;2.70;;;;;;;;;;5115347;28;20457;-78
2023/07/27 13:36:08;;;;;;;5.30;3.00;;;;;;;;;;5115819;28;20457;-78
2023/07/27 13:38:35;;;;;;;4.23;2.90;;;;;;;;;;5115388;28;20559;-78
2023/07/27 13:41:03;;;;;;;2.93;2.53;;;;;;;;;;5115078;28;20497;-78
2023/07/27 13:43:31;;;;;;;5.87;2.30;;;;;;;;;;5115577;28;20807;-78
2023/07/27 13:45:58;;;;;;;2.50;2.10;;;;;;;;;;5115055;28;20470;-77
2023/07/27 13:48:26;;;;;;;2.40;2.07;;;;;;;;;;5116727;28;20450;-77
2023/07/27 13:50:53;;;;;;;2.83;1.93;;;;;;;;;;5117307;28;20481;-77
2023/07/27 13:53:22;;;;;;;3.90;3.23;;;;;;;;;;5117245;28;20464;-77
2023/07/27 13:55:50;;;;;;;5.20;2.80;;;;;;;;;;5117161;28;20548;-77
2023/07/27 13:58:17;;;;;;;3.53;2.57;;;;;;;;;;5115936;28;20465;-77
2023/07/27 14:00:44;;;;;;;2.77;2.30;;;;;;;;;;5114718;28;20504;-77
2023/07/27 14:03:13;;;;;;;3.57;2.60;;;;;;;;;;5114861;28;20953;-77
2023/07/27 14:05:40;;;;;;;4.57;3.33;;;;;;;;;;5114549;28;20454;-76
2023/07/27 14:08:07;;;;;;;6.00;4.03;;;;;;;;;;5114784;28;20472;-77
2023/07/27 14:10:36;;;;;;;3.80;3.10;;;;;;;;;;5114730;28;20473;-77
2023/07/27 14:13:03;;;;;;;5.13;3.57;;;;;;;;;;5114384;28;20453;-77
2023/07/27 14:15:30;;;;;;;3.23;2.43;;;;;;;;;;5114808;28;20538;-77
2023/07/27 14:17:57;;;;;;;3.43;2.37;;;;;;;;;;5114361;28;20464;-77
2023/07/27 14:20:24;;;;;;;2.23;1.80;;;;;;;;;;5114533;28;20488;-77
2023/07/27 14:22:51;;;;;;;2.17;1.80;;;;;;;;;;5114518;28;20453;-77
2023/07/27 14:25:19;;;;;;;2.80;2.20;;;;;;;;;;5114355;28;20454;-77
2023/07/27 14:27:47;;;;;;;5.90;3.07;;;;;;;;;;5115508;28;20465;-77
2023/07/27 14:30:14;;;;;;;3.50;2.13;;;;;;;;;;5120024;28;20545;-79
2023/07/27 14:32:41;;;;;;;2.73;2.17;;;;;;;;;;5119077;28;20484;-79
2023/07/27 14:35:09;;;;;;;2.67;2.30;;;;;;;;;;5118861;28;20446;-80
2023/07/27 14:37:36;;;;;;;3.10;2.67;;;;;;;;;;5117853;28;20438;-79
2023/07/27 14:40:04;;;;;;;4.23;3.30;;;;;;;;;;5117516;28;20488;-79
2023/07/27 14:42:31;;;;;;;4.03;3.30;;;;;;;;;;5118428;28;20512;-79
2023/07/27 14:44:59;;;;;;;3.27;2.97;;;;;;;;;;5113026;28;20543;-79
2023/07/27 14:47:27;;;;;;;6.40;2.30;;;;;;;;;;5115391;28;20903;-78